sensor_id;sensor_type;location;lat;lon;timestamp;pressure;altitude;pressure_sealevel;temperature;humidity
9905;BME280;4991;43.566;27.820;2023-03-20T00:01:52;99302.41;;;4.52;100.00
9905;BME280;4991;43.566;27.820;2023-03-20T00:04:17;99295.88;;;4.48;100.00
9905;BME280;4991;43.566;27.820;2023-03-20T00:06:43;99297.75;;;4.48;100.00
9905;BME280;4991;43.566;27.820;2023-03-20T00:09:08;99289.47;;;4.54;100.00
9905;BME280;4991;43.566;27.820;2023-03-20T00:11:41;99287.63;;;4.60;100.00
9905;BME280;4991;43.566;27.820;2023-03-20T00:14:10;99280.88;;;4.57;100.00
9905;BME280;4991;43.566;27.820;2023-03-20T00:16:38;99286.03;;;4.59;100.00
9905;BME280;4991;43.566;27.820;2023-03-20T00:19:05;99277.63;;;4.55;100.00
9905;BME280;4991;43.566;27.820;2023-03-20T00:21:31;99278.19;;;4.57;100.00
9905;BME280;4991;43.566;27.820;2023-03-20T00:23:57;99270.44;;;4.39;100.00
9905;BME280;4991;43.566;27.820;2023-03-20T00:26:30;99264.97;;;4.56;100.00
9905;BME280;4991;43.566;27.820;2023-03-20T00:28:57;99273.66;;;4.41;100.00
9905;BME280;4991;43.566;27.820;2023-03-20T00:31:27;99266.91;;;4.39;100.00
9905;BME280;4991;43.566;27.820;2023-03-20T00:33:56;99275.31;;;4.42;100.00
9905;BME280;4991;43.566;27.820;2023-03-20T00:36:23;99262.41;;;4.44;100.00
9905;BME280;4991;43.566;27.820;2023-03-20T00:38:49;99259.41;;;4.41;100.00
9905;BME280;4991;43.566;27.820;2023-03-20T00:43:52;99252.28;;;4.35;100.00
9905;BME280;4991;43.566;27.820;2023-03-20T00:46:20;99259.59;;;4.34;100.00
9905;BME280;4991;43.566;27.820;2023-03-20T00:48:46;99248.50;;;4.31;100.00
9905;BME280;4991;43.566;27.820;2023-03-20T00:51:12;99240.34;;;4.26;100.00
9905;BME280;4991;43.566;27.820;2023-03-20T00:53:37;99232.44;;;4.19;100.00
9905;BME280;4991;43.566;27.820;2023-03-20T00:56:03;99256.19;;;4.22;100.00
9905;BME280;4991;43.566;27.820;2023-03-20T00:58:29;99249.88;;;4.12;100.00
9905;BME280;4991;43.566;27.820;2023-03-20T01:00:55;99252.63;;;4.17;100.00
9905;BME280;4991;43.566;27.820;2023-03-20T01:03:22;99251.06;;;4.21;100.00
9905;BME280;4991;43.566;27.820;2023-03-20T01:05:49;99252.81;;;4.10;100.00
9905;BME280;4991;43.566;27.820;2023-03-20T01:08:19;99252.75;;;4.05;100.00
9905;BME280;4991;43.566;27.820;2023-03-20T01:10:48;99251.13;;;4.04;100.00
9905;BME280;4991;43.566;27.820;2023-03-20T01:15:49;99243.03;;;4.04;100.00
9905;BME280;4991;43.566;27.820;2023-03-20T01:18:17;99249.88;;;4.12;100.00
9905;BME280;4991;43.566;27.820;2023-03-20T01:20:43;99250.63;;;4.07;100.00
9905;BME280;4991;43.566;27.820;2023-03-20T01:23:09;99254.59;;;4.00;100.00
9905;BME280;4991;43.566;27.820;2023-03-20T01:25:35;99246.97;;;3.96;100.00
9905;BME280;4991;43.566;27.820;2023-03-20T01:28:02;99252.38;;;3.96;100.00
9905;BME280;4991;43.566;27.820;2023-03-20T01:30:30;99252.09;;;3.98;100.00
9905;BME280;4991;43.566;27.820;2023-03-20T01:32:57;99250.00;;;4.00;100.00
9905;BME280;4991;43.566;27.820;2023-03-20T01:35:25;99243.47;;;3.96;100.00
9905;BME280;4991;43.566;27.820;2023-03-20T01:37:52;99231.50;;;3.87;100.00
9905;BME280;4991;43.566;27.820;2023-03-20T01:40:25;99235.66;;;3.94;100.00
9905;BME280;4991;43.566;27.820;2023-03-20T01:42:53;99235.94;;;3.98;100.00
9905;BME280;4991;43.566;27.820;2023-03-20T01:45:21;99223.47;;;3.92;100.00
9905;BME280;4991;43.566;27.820;2023-03-20T01:47:49;99227.78;;;3.93;100.00
9905;BME280;4991;43.566;27.820;2023-03-20T01:50:31;99227.25;;;3.91;100.00
9905;BME280;4991;43.566;27.820;2023-03-20T01:55:35;99216.78;;;3.94;100.00
9905;BME280;4991;43.566;27.820;2023-03-20T01:58:06;99219.22;;;3.96;100.00
9905;BME280;4991;43.566;27.820;2023-03-20T02:00:32;99216.41;;;3.86;100.00
9905;BME280;4991;43.566;27.820;2023-03-20T02:02:58;99218.91;;;3.92;100.00
9905;BME280;4991;43.566;27.820;2023-03-20T02:05:25;99202.69;;;3.87;100.00
9905;BME280;4991;43.566;27.820;2023-03-20T02:08:28;99208.78;;;4.00;100.00
9905;BME280;4991;43.566;27.820;2023-03-20T02:10:56;99216.84;;;4.00;100.00
9905;BME280;4991;43.566;27.820;2023-03-20T02:13:25;99203.25;;;3.89;100.00
9905;BME280;4991;43.566;27.820;2023-03-20T02:18:26;99203.06;;;3.96;100.00
9905;BME280;4991;43.566;27.820;2023-03-20T02:21:20;99205.81;;;4.01;100.00
9905;BME280;4991;43.566;27.820;2023-03-20T02:41:14;99186.78;;;4.08;100.00
9905;BME280;4991;43.566;27.820;2023-03-20T02:44:11;99189.22;;;4.09;100.00
9905;BME280;4991;43.566;27.820;2023-03-20T02:51:40;99181.44;;;4.13;100.00
9905;BME280;4991;43.566;27.820;2023-03-20T02:57:00;99172.97;;;4.04;100.00
9905;BME280;4991;43.566;27.820;2023-03-20T02:59:34;99171.91;;;4.05;100.00
9905;BME280;4991;43.566;27.820;2023-03-20T03:02:15;99173.78;;;4.05;100.00
9905;BME280;4991;43.566;27.820;2023-03-20T03:04:54;99173.78;;;4.05;100.00
9905;BME280;4991;43.566;27.820;2023-03-20T03:07:24;99174.16;;;4.13;100.00
9905;BME280;4991;43.566;27.820;2023-03-20T03:10:14;99175.28;;;4.17;100.00
9905;BME280;4991;43.566;27.820;2023-03-20T03:12:43;99173.66;;;4.16;100.00
9905;BME280;4991;43.566;27.820;2023-03-20T03:15:27;99180.72;;;4.22;100.00
9905;BME280;4991;43.566;27.820;2023-03-20T03:17:56;99180.22;;;4.25;100.00
9905;BME280;4991;43.566;27.820;2023-03-20T03:20:27;99179.38;;;4.25;100.00
9905;BME280;4991;43.566;27.820;2023-03-20T03:22:54;99184.03;;;4.29;100.00
9905;BME280;4991;43.566;27.820;2023-03-20T03:25:24;99190.47;;;4.28;100.00
9905;BME280;4991;43.566;27.820;2023-03-20T03:28:00;99196.19;;;4.32;100.00
9905;BME280;4991;43.566;27.820;2023-03-20T03:30:30;99192.38;;;4.28;100.00
9905;BME280;4991;43.566;27.820;2023-03-20T03:33:33;99192.50;;;4.38;100.00
9905;BME280;4991;43.566;27.820;2023-03-20T03:36:28;99185.53;;;4.20;100.00
9905;BME280;4991;43.566;27.820;2023-03-20T03:45:14;99197.16;;;4.21;100.00
9905;BME280;4991;43.566;27.820;2023-03-20T03:48:11;99192.03;;;4.19;100.00
9905;BME280;4991;43.566;27.820;2023-03-20T03:50:49;99199.91;;;4.26;100.00
9905;BME280;4991;43.566;27.820;2023-03-20T03:53:20;99194.97;;;4.18;100.00
9905;BME280;4991;43.566;27.820;2023-03-20T03:55:50;99193.31;;;4.17;100.00
9905;BME280;4991;43.566;27.820;2023-03-20T03:58:20;99189.84;;;4.16;100.00
9905;BME280;4991;43.566;27.820;2023-03-20T04:00:48;99187.38;;;4.15;100.00
9905;BME280;4991;43.566;27.820;2023-03-20T04:03:19;99194.72;;;4.19;100.00
9905;BME280;4991;43.566;27.820;2023-03-20T04:05:46;99193.84;;;4.14;100.00
9905;BME280;4991;43.566;27.820;2023-03-20T04:08:13;99198.66;;;4.12;100.00
9905;BME280;4991;43.566;27.820;2023-03-20T04:10:39;99196.28;;;4.15;100.00
9905;BME280;4991;43.566;27.820;2023-03-20T04:13:04;99172.41;;;4.02;100.00
9905;BME280;4991;43.566;27.820;2023-03-20T04:15:30;99186.88;;;4.18;100.00
9905;BME280;4991;43.566;27.820;2023-03-20T04:17:55;99191.06;;;4.09;100.00
9905;BME280;4991;43.566;27.820;2023-03-20T04:20:21;99196.28;;;4.15;100.00
9905;BME280;4991;43.566;27.820;2023-03-20T04:22:47;99203.59;;;4.20;100.00
9905;BME280;4991;43.566;27.820;2023-03-20T04:25:23;99203.38;;;4.21;100.00
9905;BME280;4991;43.566;27.820;2023-03-20T04:27:50;99198.47;;;4.18;100.00
9905;BME280;4991;43.566;27.820;2023-03-20T04:30:17;99192.47;;;4.11;100.00
9905;BME280;4991;43.566;27.820;2023-03-20T04:32:43;99196.78;;;4.12;100.00
9905;BME280;4991;43.566;27.820;2023-03-20T04:35:09;99201.41;;;4.17;100.00
9905;BME280;4991;43.566;27.820;2023-03-20T04:37:35;99192.75;;;4.15;100.00
9905;BME280;4991;43.566;27.820;2023-03-20T04:40:01;99203.13;;;4.23;100.00
9905;BME280;4991;43.566;27.820;2023-03-20T04:42:26;99211.69;;;4.20;100.00
9905;BME280;4991;43.566;27.820;2023-03-20T04:44:52;99206.34;;;4.25;100.00
9905;BME280;4991;43.566;27.820;2023-03-20T04:47:18;99215.00;;;4.27;100.00
9905;BME280;4991;43.566;27.820;2023-03-20T04:49:43;99213.44;;;4.31;100.00
9905;BME280;4991;43.566;27.820;2023-03-20T04:52:09;99213.75;;;4.34;100.00
9905;BME280;4991;43.566;27.820;2023-03-20T04:54:34;99217.69;;;4.27;100.00
9905;BME280;4991;43.566;27.820;2023-03-20T04:57:00;99209.66;;;4.32;100.00
9905;BME280;4991;43.566;27.820;2023-03-20T04:59:26;99216.72;;;4.33;100.00
9905;BME280;4991;43.566;27.820;2023-03-20T05:01:51;99209.47;;;4.38;100.00
9905;BME280;4991;43.566;27.820;2023-03-20T05:04:17;99213.88;;;4.44;100.00
9905;BME280;4991;43.566;27.820;2023-03-20T05:06:43;99213.28;;;4.42;100.00
9905;BME280;4991;43.566;27.820;2023-03-20T05:09:09;99206.50;;;4.40;100.00
9905;BME280;4991;43.566;27.820;2023-03-20T05:11:35;99205.97;;;4.38;100.00
9905;BME280;4991;43.566;27.820;2023-03-20T05:14:01;99204.91;;;4.39;100.00
9905;BME280;4991;43.566;27.820;2023-03-20T05:16:26;99200.59;;;4.43;100.00
9905;BME280;4991;43.566;27.820;2023-03-20T05:18:52;99208.06;;;4.57;100.00
9905;BME280;4991;43.566;27.820;2023-03-20T05:21:17;99211.84;;;4.61;100.00
9905;BME280;4991;43.566;27.820;2023-03-20T05:23:43;99207.91;;;4.69;100.00
9905;BME280;4991;43.566;27.820;2023-03-20T05:26:09;99222.84;;;4.81;100.00
9905;BME280;4991;43.566;27.820;2023-03-20T05:28:35;99227.72;;;4.84;100.00
9905;BME280;4991;43.566;27.820;2023-03-20T05:31:01;99225.03;;;4.84;100.00
9905;BME280;4991;43.566;27.820;2023-03-20T05:33:27;99224.28;;;4.89;100.00
9905;BME280;4991;43.566;27.820;2023-03-20T05:35:52;99231.25;;;4.85;100.00
9905;BME280;4991;43.566;27.820;2023-03-20T05:38:18;99228.34;;;4.91;100.00
9905;BME280;4991;43.566;27.820;2023-03-20T05:40:48;99235.59;;;4.91;100.00
9905;BME280;4991;43.566;27.820;2023-03-20T05:43:15;99230.78;;;4.93;100.00
9905;BME280;4991;43.566;27.820;2023-03-20T05:45:41;99229.47;;;4.95;100.00
9905;BME280;4991;43.566;27.820;2023-03-20T05:48:07;99225.53;;;5.13;100.00
9905;BME280;4991;43.566;27.820;2023-03-20T05:50:33;99224.44;;;5.09;100.00
9905;BME280;4991;43.566;27.820;2023-03-20T05:52:58;99221.75;;;5.09;100.00
9905;BME280;4991;43.566;27.820;2023-03-20T05:55:25;99223.66;;;5.13;100.00
9905;BME280;4991;43.566;27.820;2023-03-20T05:57:51;99214.81;;;5.23;100.00
9905;BME280;4991;43.566;27.820;2023-03-20T06:00:17;99213.75;;;5.24;100.00
9905;BME280;4991;43.566;27.820;2023-03-20T06:02:42;99210.03;;;5.30;100.00
9905;BME280;4991;43.566;27.820;2023-03-20T06:05:08;99209.88;;;5.47;100.00
9905;BME280;4991;43.566;27.820;2023-03-20T06:07:34;99206.63;;;5.50;100.00
9905;BME280;4991;43.566;27.820;2023-03-20T06:10:00;99217.22;;;5.56;100.00
9905;BME280;4991;43.566;27.820;2023-03-20T06:12:27;99205.50;;;5.82;100.00
9905;BME280;4991;43.566;27.820;2023-03-20T06:14:52;99212.56;;;5.88;100.00
9905;BME280;4991;43.566;27.820;2023-03-20T06:17:18;99205.44;;;5.77;100.00
9905;BME280;4991;43.566;27.820;2023-03-20T06:19:44;99210.53;;;5.64;100.00
9905;BME280;4991;43.566;27.820;2023-03-20T06:22:10;99214.59;;;5.71;100.00
9905;BME280;4991;43.566;27.820;2023-03-20T06:24:36;99210.38;;;5.90;100.00
9905;BME280;4991;43.566;27.820;2023-03-20T06:27:02;99218.06;;;6.08;100.00
9905;BME280;4991;43.566;27.820;2023-03-20T06:29:28;99216.97;;;6.09;100.00
9905;BME280;4991;43.566;27.820;2023-03-20T06:31:53;99218.66;;;6.25;100.00
9905;BME280;4991;43.566;27.820;2023-03-20T06:34:20;99222.44;;;6.24;100.00
9905;BME280;4991;43.566;27.820;2023-03-20T06:36:46;99231.13;;;6.31;100.00
9905;BME280;4991;43.566;27.820;2023-03-20T06:39:13;99228.50;;;6.51;100.00
9905;BME280;4991;43.566;27.820;2023-03-20T06:41:38;99215.44;;;6.43;100.00
9905;BME280;4991;43.566;27.820;2023-03-20T06:44:04;99225.25;;;6.60;100.00
9905;BME280;4991;43.566;27.820;2023-03-20T06:46:30;99230.41;;;6.66;100.00
9905;BME280;4991;43.566;27.820;2023-03-20T06:48:56;99238.84;;;6.90;100.00
9905;BME280;4991;43.566;27.820;2023-03-20T06:51:21;99234.22;;;6.85;100.00
9905;BME280;4991;43.566;27.820;2023-03-20T06:53:47;99236.66;;;7.02;100.00
9905;BME280;4991;43.566;27.820;2023-03-20T06:56:13;99232.63;;;7.09;100.00
9905;BME280;4991;43.566;27.820;2023-03-20T06:58:38;99228.25;;;7.38;100.00
9905;BME280;4991;43.566;27.820;2023-03-20T07:01:09;99234.22;;;7.45;100.00
9905;BME280;4991;43.566;27.820;2023-03-20T07:03:34;99231.50;;;7.55;100.00
9905;BME280;4991;43.566;27.820;2023-03-20T07:06:00;99232.31;;;7.56;100.00
9905;BME280;4991;43.566;27.820;2023-03-20T07:08:26;99233.91;;;7.72;100.00
9905;BME280;4991;43.566;27.820;2023-03-20T07:10:52;99227.09;;;7.84;100.00
9905;BME280;4991;43.566;27.820;2023-03-20T07:13:19;99228.22;;;7.68;100.00
9905;BME280;4991;43.566;27.820;2023-03-20T07:15:45;99218.19;;;7.79;100.00
9905;BME280;4991;43.566;27.820;2023-03-20T07:18:11;99224.91;;;7.92;100.00
9905;BME280;4991;43.566;27.820;2023-03-20T07:20:36;99220.75;;;8.14;100.00
9905;BME280;4991;43.566;27.820;2023-03-20T07:23:02;99225.06;;;8.30;100.00
9905;BME280;4991;43.566;27.820;2023-03-20T07:25:28;99226.94;;;8.35;100.00
9905;BME280;4991;43.566;27.820;2023-03-20T07:27:53;99210.91;;;8.38;100.00
9905;BME280;4991;43.566;27.820;2023-03-20T07:30:19;99221.50;;;8.40;100.00
9905;BME280;4991;43.566;27.820;2023-03-20T07:32:45;99219.16;;;8.08;100.00
9905;BME280;4991;43.566;27.820;2023-03-20T07:35:11;99224.31;;;8.10;100.00
9905;BME280;4991;43.566;27.820;2023-03-20T07:37:37;99223.22;;;8.16;100.00
9905;BME280;4991;43.566;27.820;2023-03-20T07:40:03;99216.06;;;8.40;100.00
9905;BME280;4991;43.566;27.820;2023-03-20T07:42:29;99209.59;;;8.79;100.00
9905;BME280;4991;43.566;27.820;2023-03-20T07:44:54;99218.44;;;8.95;100.00
9905;BME280;4991;43.566;27.820;2023-03-20T07:47:20;99213.66;;;8.82;100.00
9905;BME280;4991;43.566;27.820;2023-03-20T07:49:46;99215.50;;;8.86;100.00
9905;BME280;4991;43.566;27.820;2023-03-20T07:52:13;99225.44;;;8.62;100.00
9905;BME280;4991;43.566;27.820;2023-03-20T07:54:39;99216.66;;;8.80;100.00
9905;BME280;4991;43.566;27.820;2023-03-20T07:57:04;99211.47;;;8.79;100.00
9905;BME280;4991;43.566;27.820;2023-03-20T07:59:30;99218.47;;;8.90;100.00
9905;BME280;4991;43.566;27.820;2023-03-20T08:01:56;99227.84;;;9.07;100.00
9905;BME280;4991;43.566;27.820;2023-03-20T08:04:22;99218.25;;;9.20;100.00
9905;BME280;4991;43.566;27.820;2023-03-20T08:06:48;99223.44;;;9.17;100.00
9905;BME280;4991;43.566;27.820;2023-03-20T08:09:15;99219.41;;;9.43;100.00
9905;BME280;4991;43.566;27.820;2023-03-20T08:11:40;99225.94;;;9.42;100.00
9905;BME280;4991;43.566;27.820;2023-03-20T08:14:06;99224.66;;;9.63;100.00
9905;BME280;4991;43.566;27.820;2023-03-20T08:16:32;99224.13;;;9.61;100.00
9905;BME280;4991;43.566;27.820;2023-03-20T08:18:57;99216.34;;;9.78;100.00
9905;BME280;4991;43.566;27.820;2023-03-20T08:21:29;99225.88;;;9.75;100.00
9905;BME280;4991;43.566;27.820;2023-03-20T08:23:57;99220.53;;;9.65;100.00
9905;BME280;4991;43.566;27.820;2023-03-20T08:26:23;99226.75;;;9.71;100.00
9905;BME280;4991;43.566;27.820;2023-03-20T08:28:49;99219.22;;;9.63;100.00
9905;BME280;4991;43.566;27.820;2023-03-20T08:31:16;99219.88;;;9.50;100.00
9905;BME280;4991;43.566;27.820;2023-03-20T08:33:46;99221.97;;;9.86;100.00
9905;BME280;4991;43.566;27.820;2023-03-20T08:36:14;99230.31;;;10.18;100.00
9905;BME280;4991;43.566;27.820;2023-03-20T08:38:41;99223.09;;;10.09;100.00
9905;BME280;4991;43.566;27.820;2023-03-20T08:41:07;99228.94;;;10.21;100.00
9905;BME280;4991;43.566;27.820;2023-03-20T08:43:34;99230.75;;;10.49;100.00
9905;BME280;4991;43.566;27.820;2023-03-20T08:46:02;99223.53;;;10.39;100.00
9905;BME280;4991;43.566;27.820;2023-03-20T08:48:28;99220.38;;;10.51;100.00
9905;BME280;4991;43.566;27.820;2023-03-20T08:50:54;99219.63;;;10.46;100.00
9905;BME280;4991;43.566;27.820;2023-03-20T08:53:19;99213.53;;;10.54;100.00
9905;BME280;4991;43.566;27.820;2023-03-20T08:55:49;99216.03;;;10.50;100.00
9905;BME280;4991;43.566;27.820;2023-03-20T08:58:16;99215.28;;;11.19;100.00
9905;BME280;4991;43.566;27.820;2023-03-20T09:00:42;99215.03;;;11.47;100.00
9905;BME280;4991;43.566;27.820;2023-03-20T09:03:12;99219.84;;;11.55;100.00
9905;BME280;4991;43.566;27.820;2023-03-20T09:05:45;99208.19;;;11.50;100.00
9905;BME280;4991;43.566;27.820;2023-03-20T09:08:12;99214.72;;;11.35;100.00
9905;BME280;4991;43.566;27.820;2023-03-20T09:10:38;99209.56;;;10.83;100.00
9905;BME280;4991;43.566;27.820;2023-03-20T09:13:05;99204.03;;;10.88;100.00
9905;BME280;4991;43.566;27.820;2023-03-20T09:15:31;99196.25;;;11.32;100.00
9905;BME280;4991;43.566;27.820;2023-03-20T09:17:56;99203.75;;;11.40;100.00
9905;BME280;4991;43.566;27.820;2023-03-20T09:20:22;99206.69;;;12.17;100.00
9905;BME280;4991;43.566;27.820;2023-03-20T09:22:48;99206.34;;;12.45;100.00
9905;BME280;4991;43.566;27.820;2023-03-20T09:25:13;99204.19;;;12.69;100.00
9905;BME280;4991;43.566;27.820;2023-03-20T09:27:39;99197.28;;;12.72;100.00
9905;BME280;4991;43.566;27.820;2023-03-20T09:30:06;99201.81;;;12.41;100.00
9905;BME280;4991;43.566;27.820;2023-03-20T09:32:33;99191.81;;;12.72;100.00
9905;BME280;4991;43.566;27.820;2023-03-20T09:35:01;99187.22;;;13.17;100.00
9905;BME280;4991;43.566;27.820;2023-03-20T09:37:28;99184.72;;;12.84;100.00
9905;BME280;4991;43.566;27.820;2023-03-20T09:39:56;99188.50;;;12.75;100.00
9905;BME280;4991;43.566;27.820;2023-03-20T09:47:50;99184.34;;;15.55;100.00
9905;BME280;4991;43.566;27.820;2023-03-20T09:52:56;99160.19;;;17.47;100.00
9905;BME280;4991;43.566;27.820;2023-03-20T09:55:35;99157.50;;;17.95;100.00
9905;BME280;4991;43.566;27.820;2023-03-20T09:58:20;99159.09;;;18.69;100.00
9905;BME280;4991;43.566;27.820;2023-03-20T10:00:47;99155.47;;;20.72;100.00
9905;BME280;4991;43.566;27.820;2023-03-20T10:06:03;99155.00;;;19.30;100.00
9905;BME280;4991;43.566;27.820;2023-03-20T10:08:35;99155.47;;;19.91;100.00
9905;BME280;4991;43.566;27.820;2023-03-20T10:11:09;99135.94;;;21.80;100.00
9905;BME280;4991;43.566;27.820;2023-03-20T10:14:32;99136.50;;;21.89;100.00
9905;BME280;4991;43.566;27.820;2023-03-20T10:19:38;99139.06;;;22.01;100.00
9905;BME280;4991;43.566;27.820;2023-03-20T10:25:27;99133.63;;;22.56;100.00
9905;BME280;4991;43.566;27.820;2023-03-20T10:27:59;99123.66;;;21.81;100.00
9905;BME280;4991;43.566;27.820;2023-03-20T10:33:06;99124.47;;;21.81;100.00
9905;BME280;4991;43.566;27.820;2023-03-20T10:35:38;99127.78;;;22.13;100.00
9905;BME280;4991;43.566;27.820;2023-03-20T10:40:49;99116.03;;;21.13;100.00
9905;BME280;4991;43.566;27.820;2023-03-20T10:43:23;99123.78;;;22.10;100.00
9905;BME280;4991;43.566;27.820;2023-03-20T10:46:03;99120.06;;;23.11;100.00
9905;BME280;4991;43.566;27.820;2023-03-20T10:48:40;99120.66;;;22.64;100.00
9905;BME280;4991;43.566;27.820;2023-03-20T10:51:13;99114.66;;;22.10;100.00
9905;BME280;4991;43.566;27.820;2023-03-20T10:56:15;99110.34;;;21.25;100.00
9905;BME280;4991;43.566;27.820;2023-03-20T10:58:47;99114.09;;;19.63;100.00
9905;BME280;4991;43.566;27.820;2023-03-20T11:01:14;99100.03;;;18.58;100.00
9905;BME280;4991;43.566;27.820;2023-03-20T11:03:40;99095.34;;;18.34;100.00
9905;BME280;4991;43.566;27.820;2023-03-20T11:06:19;99092.59;;;18.46;100.00
9905;BME280;4991;43.566;27.820;2023-03-20T11:08:51;99097.16;;;18.66;100.00
9905;BME280;4991;43.566;27.820;2023-03-20T11:11:25;99089.59;;;18.51;100.00
9905;BME280;4991;43.566;27.820;2023-03-20T11:13:53;99086.94;;;18.55;100.00
9905;BME280;4991;43.566;27.820;2023-03-20T11:16:28;99077.97;;;19.72;100.00
9905;BME280;4991;43.566;27.820;2023-03-20T11:19:04;99072.31;;;22.42;100.00
9905;BME280;4991;43.566;27.820;2023-03-20T11:21:30;99066.47;;;22.77;100.00
9905;BME280;4991;43.566;27.820;2023-03-20T11:23:56;99071.19;;;22.47;100.00
9905;BME280;4991;43.566;27.820;2023-03-20T11:26:34;99069.97;;;23.77;96.29
9905;BME280;4991;43.566;27.820;2023-03-20T11:29:00;99071.78;;;22.07;100.00
9905;BME280;4991;43.566;27.820;2023-03-20T11:31:35;99058.72;;;23.63;93.70
9905;BME280;4991;43.566;27.820;2023-03-20T11:36:53;99061.34;;;22.79;91.84
9905;BME280;4991;43.566;27.820;2023-03-20T11:39:30;99063.25;;;21.70;96.24
9905;BME280;4991;43.566;27.820;2023-03-20T11:42:00;99044.75;;;22.01;98.54
9905;BME280;4991;43.566;27.820;2023-03-20T11:49:25;99053.22;;;23.70;90.13
9905;BME280;4991;43.566;27.820;2023-03-20T11:51:52;99043.72;;;23.74;86.81
9905;BME280;4991;43.566;27.820;2023-03-20T11:54:22;99044.19;;;23.03;93.19
9905;BME280;4991;43.566;27.820;2023-03-20T11:59:37;99035.28;;;24.07;93.66
9905;BME280;4991;43.566;27.820;2023-03-20T12:02:17;99025.75;;;24.84;85.68
9905;BME280;4991;43.566;27.820;2023-03-20T12:04:45;99022.13;;;24.76;83.90
9905;BME280;4991;43.566;27.820;2023-03-20T12:07:28;99024.13;;;23.20;88.08
9905;BME280;4991;43.566;27.820;2023-03-20T12:10:05;99022.19;;;23.64;88.16
9905;BME280;4991;43.566;27.820;2023-03-20T12:12:52;99001.88;;;24.07;84.31
9905;BME280;4991;43.566;27.820;2023-03-20T12:16:02;99021.25;;;23.46;83.97
9905;BME280;4991;43.566;27.820;2023-03-20T12:18:40;99014.00;;;22.68;89.89
9905;BME280;4991;43.566;27.820;2023-03-20T12:26:51;99007.16;;;23.72;84.89
9905;BME280;4991;43.566;27.820;2023-03-20T12:28:59;99007.09;;;23.25;85.67
9905;BME280;4991;43.566;27.820;2023-03-20T12:34:03;98995.22;;;23.72;87.68
9905;BME280;4991;43.566;27.820;2023-03-20T12:36:36;99000.03;;;23.28;87.77
9905;BME280;4991;43.566;27.820;2023-03-20T12:39:09;98998.53;;;22.38;89.89
9905;BME280;4991;43.566;27.820;2023-03-20T12:41:46;98991.25;;;22.26;92.81
9905;BME280;4991;43.566;27.820;2023-03-20T12:47:11;98994.84;;;22.01;97.35
9905;BME280;4991;43.566;27.820;2023-03-20T12:55:20;98989.34;;;21.78;96.42
9905;BME280;4991;43.566;27.820;2023-03-20T13:00:32;98979.03;;;21.30;100.00
9905;BME280;4991;43.566;27.820;2023-03-20T13:08:42;98974.16;;;19.90;100.00
9905;BME280;4991;43.566;27.820;2023-03-20T13:11:17;98974.56;;;20.42;100.00
9905;BME280;4991;43.566;27.820;2023-03-20T13:13:56;98968.72;;;20.66;100.00
9905;BME280;4991;43.566;27.820;2023-03-20T13:17:01;98964.72;;;19.41;100.00
9905;BME280;4991;43.566;27.820;2023-03-20T13:24:53;98956.03;;;19.73;100.00
9905;BME280;4991;43.566;27.820;2023-03-20T13:30:00;98961.03;;;19.05;100.00
9905;BME280;4991;43.566;27.820;2023-03-20T13:32:38;98965.66;;;19.79;100.00
9905;BME280;4991;43.566;27.820;2023-03-20T13:40:42;98959.84;;;18.20;100.00
9905;BME280;4991;43.566;27.820;2023-03-20T13:46:08;98957.44;;;17.55;100.00
9905;BME280;4991;43.566;27.820;2023-03-20T13:48:40;98955.34;;;17.16;100.00
9905;BME280;4991;43.566;27.820;2023-03-20T14:04:25;98953.84;;;16.61;100.00
9905;BME280;4991;43.566;27.820;2023-03-20T14:06:56;98947.25;;;16.87;100.00
9905;BME280;4991;43.566;27.820;2023-03-20T14:09:34;98941.53;;;16.92;100.00
9905;BME280;4991;43.566;27.820;2023-03-20T14:12:05;98953.63;;;16.66;100.00
9905;BME280;4991;43.566;27.820;2023-03-20T14:17:20;98942.53;;;16.42;100.00
9905;BME280;4991;43.566;27.820;2023-03-20T14:19:50;98948.81;;;16.10;100.00
9905;BME280;4991;43.566;27.820;2023-03-20T14:22:19;98933.56;;;16.54;100.00
9905;BME280;4991;43.566;27.820;2023-03-20T14:30:43;98936.41;;;16.04;100.00
9905;BME280;4991;43.566;27.820;2023-03-20T14:35:41;98935.75;;;15.37;100.00
9905;BME280;4991;43.566;27.820;2023-03-20T14:38:17;98933.22;;;15.23;100.00
9905;BME280;4991;43.566;27.820;2023-03-20T14:41:18;98925.22;;;15.68;100.00
9905;BME280;4991;43.566;27.820;2023-03-20T14:48:54;98929.59;;;14.56;100.00
9905;BME280;4991;43.566;27.820;2023-03-20T14:56:49;98929.47;;;13.93;100.00
9905;BME280;4991;43.566;27.820;2023-03-20T14:59:17;98918.22;;;13.86;100.00
9905;BME280;4991;43.566;27.820;2023-03-20T15:04:38;98934.16;;;13.75;100.00
9905;BME280;4991;43.566;27.820;2023-03-20T15:07:13;98938.50;;;13.85;100.00
9905;BME280;4991;43.566;27.820;2023-03-20T15:09:43;98924.66;;;13.81;100.00
9905;BME280;4991;43.566;27.820;2023-03-20T15:12:13;98942.50;;;13.62;100.00
9905;BME280;4991;43.566;27.820;2023-03-20T15:14:51;98949.56;;;12.98;100.00
9905;BME280;4991;43.566;27.820;2023-03-20T15:17:23;98937.16;;;13.48;100.00
9905;BME280;4991;43.566;27.820;2023-03-20T15:19:49;98940.81;;;13.27;100.00
9905;BME280;4991;43.566;27.820;2023-03-20T15:22:17;98935.41;;;13.52;100.00
9905;BME280;4991;43.566;27.820;2023-03-20T15:24:51;98935.88;;;13.46;100.00
9905;BME280;4991;43.566;27.820;2023-03-20T15:27:17;98933.78;;;13.34;100.00
9905;BME280;4991;43.566;27.820;2023-03-20T15:29:50;98937.56;;;13.08;100.00
9905;BME280;4991;43.566;27.820;2023-03-20T15:32:16;98932.72;;;12.74;100.00
9905;BME280;4991;43.566;27.820;2023-03-20T15:34:42;98945.91;;;13.03;100.00
9905;BME280;4991;43.566;27.820;2023-03-20T15:37:13;98936.94;;;12.80;100.00
9905;BME280;4991;43.566;27.820;2023-03-20T15:39:46;98934.75;;;12.60;100.00
9905;BME280;4991;43.566;27.820;2023-03-20T15:42:15;98933.16;;;12.67;100.00
9905;BME280;4991;43.566;27.820;2023-03-20T15:44:44;98932.66;;;12.35;100.00
9905;BME280;4991;43.566;27.820;2023-03-20T15:47:20;98925.59;;;12.12;100.00
9905;BME280;4991;43.566;27.820;2023-03-20T15:49:55;98936.53;;;11.76;100.00
9905;BME280;4991;43.566;27.820;2023-03-20T15:52:45;98948.50;;;11.66;100.00
9905;BME280;4991;43.566;27.820;2023-03-20T15:55:19;98951.41;;;11.70;100.00
9905;BME280;4991;43.566;27.820;2023-03-20T15:57:47;98935.97;;;11.52;100.00